Time;durP1;ratioP1;P1;durP2;ratioP2;P2;SDS_P1;SDS_P2;PMS_P1;PMS_P2;Temp;Humidity;BMP_temperature;BMP_pressure;BME280_temperature;BME280_humidity;BME280_pressure;Samples;Min_cycle;Max_cycle;Signal;HPM_P1;HPM_P2
2022/10/02 00:02:28;;;;;;;4.10;2.10;;;;;;;12.59;100.00;98436.75;5100858;28;20265;-69
2022/10/02 00:05:01;;;;;;;5.63;2.60;;;;;;;12.61;100.00;98427.72;5108622;28;20262;-68
2022/10/02 00:07:34;;;;;;;5.07;1.87;;;;;;;12.64;100.00;98429.28;5104355;28;20281;-68
2022/10/02 00:10:06;;;;;;;3.87;2.17;;;;;;;12.68;100.00;98428.97;5102698;28;20290;-68
2022/10/02 00:12:36;;;;;;;4.57;2.37;;;;;;;12.69;100.00;98443.03;5106898;28;20288;-68
2022/10/02 00:15:13;;;;;;;4.57;2.23;;;;;;;12.73;100.00;98450.69;5105619;28;20224;-69
2022/10/02 00:17:44;;;;;;;4.60;2.00;;;;;;;12.73;100.00;98444.53;5104322;28;20229;-68
2022/10/02 00:20:13;;;;;;;4.73;1.90;;;;;;;12.69;100.00;98445.69;5104605;28;20385;-68
2022/10/02 00:22:48;;;;;;;5.40;2.20;;;;;;;12.63;100.00;98444.34;5107664;28;20260;-69
2022/10/02 00:25:26;;;;;;;4.90;1.90;;;;;;;12.60;100.00;98459.63;5104140;28;20265;-68
2022/10/02 00:28:14;;;;;;;7.00;2.17;;;;;;;12.58;100.00;98461.53;5104134;28;20266;-67
2022/10/02 00:30:59;;;;;;;3.77;1.90;;;;;;;12.53;100.00;98448.63;5113117;28;20269;-67
2022/10/02 00:33:32;;;;;;;4.10;2.10;;;;;;;12.51;100.00;98439.06;5115369;28;20614;-66
2022/10/02 00:36:18;;;;;;;5.53;2.10;;;;;;;12.49;100.00;98451.59;5112856;28;20263;-66
2022/10/02 00:38:50;;;;;;;5.97;2.33;;;;;;;12.45;100.00;98456.28;5114290;28;20255;-66
2022/10/02 00:41:34;;;;;;;3.17;2.03;;;;;;;12.48;100.00;98452.56;5115573;28;20231;-66
2022/10/02 00:44:18;;;;;;;5.60;2.10;;;;;;;12.45;100.00;98455.41;5112938;28;20691;-66
2022/10/02 00:46:54;;;;;;;5.33;2.20;;;;;;;12.41;100.00;98451.31;5103777;28;20592;-66
2022/10/02 00:49:36;;;;;;;4.33;1.90;;;;;;;12.38;100.00;98443.56;5103728;28;20260;-66
2022/10/02 00:52:18;;;;;;;3.30;1.80;;;;;;;12.35;100.00;98444.63;5107423;28;20286;-66
2022/10/02 00:54:59;;;;;;;3.63;2.40;;;;;;;12.35;100.00;98449.94;5100648;28;20284;-66
2022/10/02 00:57:42;;;;;;;5.63;2.10;;;;;;;12.34;100.00;98450.06;5115231;28;20261;-67
2022/10/02 01:00:13;;;;;;;3.07;2.10;;;;;;;12.32;100.00;98447.50;5112508;28;20262;-66
2022/10/02 01:03:07;;;;;;;3.37;1.73;;;;;;;12.31;100.00;98453.78;5113229;28;20261;-66
2022/10/02 01:05:34;;;;;;;4.43;1.90;;;;;;;12.30;100.00;98454.69;5113291;28;20526;-67
2022/10/02 01:08:02;;;;;;;4.07;2.13;;;;;;;12.29;100.00;98457.50;5112293;28;20598;-67
2022/10/02 01:10:30;;;;;;;5.53;2.30;;;;;;;12.27;100.00;98462.03;5114790;28;20293;-67
2022/10/02 01:12:58;;;;;;;5.17;2.23;;;;;;;12.29;100.00;98465.44;5114721;28;20283;-67
2022/10/02 01:15:32;;;;;;;4.13;2.07;;;;;;;12.26;100.00;98457.69;5112947;28;20271;-67
2022/10/02 01:18:00;;;;;;;6.83;2.83;;;;;;;12.24;100.00;98455.13;5113096;28;20261;-67
2022/10/02 01:20:33;;;;;;;4.63;2.30;;;;;;;12.30;100.00;98462.66;5114787;28;20270;-67
2022/10/02 01:23:10;;;;;;;5.33;2.07;;;;;;;12.30;100.00;98451.22;5114626;28;20227;-67
2022/10/02 01:25:38;;;;;;;4.90;1.93;;;;;;;12.36;100.00;98441.00;5111080;28;20274;-67
2022/10/02 01:28:05;;;;;;;4.37;2.10;;;;;;;12.35;100.00;98438.50;5112569;28;20271;-67
2022/10/02 01:30:35;;;;;;;4.67;2.03;;;;;;;12.36;100.00;98440.19;5114299;28;20286;-67
2022/10/02 01:33:05;;;;;;;3.27;1.83;;;;;;;12.36;100.00;98440.19;5113062;28;20284;-67
2022/10/02 01:35:36;;;;;;;5.87;2.40;;;;;;;12.34;100.00;98447.41;5111610;28;20369;-67
2022/10/02 01:38:07;;;;;;;2.90;1.70;;;;;;;12.34;100.00;98453.53;5114191;28;20271;-67
2022/10/02 01:40:36;;;;;;;5.47;2.10;;;;;;;12.41;100.00;98448.66;5114146;28;20244;-67
2022/10/02 01:43:07;;;;;;;6.63;2.13;;;;;;;12.46;100.00;98451.84;5111294;28;20271;-67
2022/10/02 01:45:49;;;;;;;5.43;1.87;;;;;;;12.48;100.00;98448.09;5113129;28;20276;-67
2022/10/02 01:48:24;;;;;;;5.13;1.80;;;;;;;12.51;100.00;98452.31;5113868;28;20259;-68
2022/10/02 01:51:07;;;;;;;4.77;1.77;;;;;;;12.52;100.00;98457.53;5111830;28;20306;-67
2022/10/02 01:53:39;;;;;;;3.27;1.77;;;;;;;12.54;100.00;98465.38;5103826;28;20661;-66
2022/10/02 01:56:15;;;;;;;3.60;2.07;;;;;;;12.49;100.00;98462.22;5103135;28;20264;-67
2022/10/02 01:58:54;;;;;;;4.07;2.23;;;;;;;12.54;100.00;98466.22;5104234;28;20225;-67
2022/10/02 02:01:34;;;;;;;6.33;2.20;;;;;;;12.59;100.00;98471.22;5102840;28;20257;-68
2022/10/02 02:04:11;;;;;;;7.47;2.13;;;;;;;12.62;100.00;98460.38;5102290;28;20261;-67
2022/10/02 02:06:49;;;;;;;6.70;2.27;;;;;;;12.62;100.00;98463.00;5104696;28;20268;-67
2022/10/02 02:09:22;;;;;;;5.67;1.77;;;;;;;12.61;100.00;98463.97;5102273;28;20266;-67
2022/10/02 02:11:56;;;;;;;4.03;1.80;;;;;;;12.64;100.00;98466.41;5110705;28;20268;-68
2022/10/02 02:14:31;;;;;;;3.93;1.63;;;;;;;12.68;100.00;98465.22;5111804;28;20616;-68
2022/10/02 02:17:05;;;;;;;9.20;2.23;;;;;;;12.68;100.00;98467.88;5111844;28;20267;-67
2022/10/02 02:19:37;;;;;;;4.60;2.00;;;;;;;12.73;100.00;98471.06;5113273;28;20271;-67
2022/10/02 02:22:09;;;;;;;5.27;1.93;;;;;;;12.77;100.00;98464.56;5111567;28;20271;-68
2022/10/02 02:24:40;;;;;;;8.07;1.80;;;;;;;12.81;100.00;98468.69;5109705;28;20272;-67
2022/10/02 02:27:11;;;;;;;5.13;1.80;;;;;;;12.82;100.00;98470.38;5112897;28;20309;-68
2022/10/02 02:29:43;;;;;;;5.33;1.83;;;;;;;12.91;100.00;98472.38;5101337;28;20272;-67
2022/10/02 02:32:15;;;;;;;4.23;1.80;;;;;;;12.93;100.00;98486.34;5103915;28;20273;-67
2022/10/02 02:34:47;;;;;;;3.57;1.70;;;;;;;12.93;100.00;98483.69;5103248;28;20271;-66
2022/10/02 02:37:21;;;;;;;5.53;2.00;;;;;;;12.95;100.00;98476.50;5101805;28;20257;-68
2022/10/02 02:39:52;;;;;;;3.20;1.53;;;;;;;12.96;100.00;98472.91;5101966;28;20262;-68
2022/10/02 02:42:22;;;;;;;4.70;1.90;;;;;;;12.97;100.00;98471.94;5104921;28;20230;-67
2022/10/02 02:44:55;;;;;;;3.57;2.10;;;;;;;12.95;100.00;98471.19;5101565;28;20261;-68
2022/10/02 02:47:28;;;;;;;4.37;1.80;;;;;;;12.94;100.00;98469.47;5099750;28;20268;-68
2022/10/02 02:49:58;;;;;;;5.43;1.70;;;;;;;12.96;100.00;98467.63;5104105;28;20674;-68
2022/10/02 02:52:29;;;;;;;4.73;2.00;;;;;;;12.94;100.00;98469.47;5102426;28;20277;-68
2022/10/02 02:55:00;;;;;;;3.33;1.70;;;;;;;12.92;100.00;98460.78;5098012;28;20287;-67
2022/10/02 02:57:32;;;;;;;4.17;1.73;;;;;;;12.91;100.00;98470.53;5101429;28;20639;-67
2022/10/02 03:00:02;;;;;;;3.20;1.83;;;;;;;12.91;100.00;98475.03;5109017;28;20286;-67
2022/10/02 03:02:29;;;;;;;5.40;1.80;;;;;;;12.91;100.00;98475.03;5112693;28;20225;-67
2022/10/02 03:04:56;;;;;;;5.27;1.87;;;;;;;12.92;100.00;98476.72;5112741;28;20253;-67
2022/10/02 03:07:22;;;;;;;4.80;2.00;;;;;;;12.93;100.00;98478.41;5111884;28;20294;-67
2022/10/02 03:10:01;;;;;;;3.13;2.00;;;;;;;12.92;100.00;98476.72;5109061;28;20258;-67
2022/10/02 03:12:40;;;;;;;2.07;1.63;;;;;;;12.88;100.00;98491.16;5110782;28;20552;-67
2022/10/02 03:15:26;;;;;;;4.77;1.90;;;;;;;12.85;100.00;98486.06;5112635;28;20256;-68
2022/10/02 03:18:13;;;;;;;4.17;1.60;;;;;;;12.84;100.00;98484.38;5110502;28;20232;-67
2022/10/02 03:20:47;;;;;;;7.07;2.27;;;;;;;12.82;100.00;98488.94;5112435;28;20271;-68
2022/10/02 03:23:23;;;;;;;8.90;2.13;;;;;;;12.81;100.00;98480.16;5110862;28;20257;-68
2022/10/02 03:25:54;;;;;;;5.83;1.93;;;;;;;12.82;100.00;98480.97;5111111;28;20275;-67
2022/10/02 03:28:26;;;;;;;4.37;1.70;;;;;;;12.85;100.00;98476.28;5109892;28;20287;-66
2022/10/02 03:30:55;;;;;;;5.37;2.10;;;;;;;12.87;100.00;98479.72;5101082;28;20260;-67
2022/10/02 03:33:23;;;;;;;4.00;1.73;;;;;;;12.88;100.00;98475.22;5108574;28;20733;-66
2022/10/02 03:35:50;;;;;;;4.87;2.20;;;;;;;12.84;100.00;98465.81;5101171;28;20260;-67
2022/10/02 03:38:18;;;;;;;8.37;1.90;;;;;;;12.81;100.00;98472.19;5099116;28;20663;-68
2022/10/02 03:40:45;;;;;;;3.60;1.90;;;;;;;12.80;100.00;98472.28;5102895;28;20226;-67
2022/10/02 03:43:19;;;;;;;4.03;1.80;;;;;;;12.77;100.00;98468.06;5108676;28;20807;-67
2022/10/02 03:45:46;;;;;;;4.70;2.13;;;;;;;12.79;100.00;98467.94;5104878;28;20657;-67
2022/10/02 03:48:14;;;;;;;3.40;2.00;;;;;;;12.81;100.00;98466.03;5104829;28;20272;-67
2022/10/02 03:50:41;;;;;;;4.17;1.70;;;;;;;12.79;100.00;98460.00;5105922;28;20536;-67
2022/10/02 03:53:13;;;;;;;3.17;2.03;;;;;;;12.75;100.00;98463.81;5107815;28;20328;-67
2022/10/02 03:55:43;;;;;;;4.83;2.13;;;;;;;12.73;100.00;98461.31;5109419;28;20536;-67
2022/10/02 03:58:13;;;;;;;4.30;2.20;;;;;;;12.71;100.00;98465.84;5104714;28;20304;-67
2022/10/02 04:00:46;;;;;;;5.83;2.20;;;;;;;12.69;100.00;98474.88;5107125;28;20265;-66
2022/10/02 04:03:20;;;;;;;5.03;1.90;;;;;;;12.70;100.00;98471.25;5105580;28;20260;-68
2022/10/02 04:05:51;;;;;;;4.17;2.07;;;;;;;12.69;100.00;98474.88;5102908;28;20576;-67
2022/10/02 04:08:21;;;;;;;3.57;1.93;;;;;;;12.68;100.00;98470.53;5105024;28;20289;-68
2022/10/02 04:10:53;;;;;;;5.93;2.30;;;;;;;12.65;100.00;98476.06;5103514;28;20257;-67
2022/10/02 04:13:24;;;;;;;6.17;2.43;;;;;;;12.69;100.00;98482.81;5104354;28;20280;-67
2022/10/02 04:16:01;;;;;;;5.90;2.33;;;;;;;12.68;100.00;98479.34;5104408;28;20335;-67
2022/10/02 04:18:37;;;;;;;4.97;2.17;;;;;;;12.66;100.00;98480.41;5107459;28;20575;-67
2022/10/02 04:21:11;;;;;;;6.47;2.43;;;;;;;12.67;100.00;98490.06;5104300;28;20262;-67
2022/10/02 04:23:44;;;;;;;3.30;1.93;;;;;;;12.68;100.00;98483.78;5104370;28;20308;-67
2022/10/02 04:26:17;;;;;;;6.10;2.10;;;;;;;12.67;100.00;98482.09;5105912;28;20276;-67
2022/10/02 04:28:49;;;;;;;3.33;1.80;;;;;;;12.67;100.00;98482.09;5105600;28;20264;-67
2022/10/02 04:31:16;;;;;;;3.50;1.90;;;;;;;12.66;100.00;98486.53;5102334;28;20267;-67
2022/10/02 04:33:44;;;;;;;6.30;2.20;;;;;;;12.67;100.00;98495.34;5103967;28;20340;-67
2022/10/02 04:36:24;;;;;;;8.67;2.17;;;;;;;12.66;100.00;98491.03;5107205;28;20261;-67
2022/10/02 04:39:08;;;;;;;4.37;1.93;;;;;;;12.66;100.00;98496.31;5103854;28;20264;-67
2022/10/02 04:41:52;;;;;;;3.67;1.97;;;;;;;12.64;100.00;98499.06;5111947;28;20271;-67
2022/10/02 04:44:31;;;;;;;4.07;2.07;;;;;;;12.67;100.00;98498.00;5112578;28;20260;-67
2022/10/02 04:47:15;;;;;;;5.97;2.50;;;;;;;12.64;100.00;98498.22;5115173;28;20264;-67
2022/10/02 04:49:58;;;;;;;8.87;2.60;;;;;;;12.59;100.00;98487.94;5114131;28;20267;-67
2022/10/02 04:52:39;;;;;;;7.63;2.10;;;;;;;12.54;100.00;98486.59;5113946;28;20658;-67
2022/10/02 04:55:28;;;;;;;3.20;1.93;;;;;;;12.56;100.00;98495.28;5109751;28;20279;-67
2022/10/02 04:58:15;;;;;;;3.73;1.70;;;;;;;12.59;100.00;98495.06;5107171;28;20304;-68
2022/10/02 05:00:48;;;;;;;6.23;2.10;;;;;;;12.59;100.00;98495.06;5103623;28;20272;-67
2022/10/02 05:03:29;;;;;;;7.30;2.23;;;;;;;12.57;100.00;98491.66;5103369;28;20262;-67
2022/10/02 05:06:21;;;;;;;6.40;2.37;;;;;;;12.62;100.00;98492.19;5112117;28;20594;-68
2022/10/02 05:09:02;;;;;;;6.60;2.17;;;;;;;12.61;100.00;98494.00;5114811;28;20280;-67
2022/10/02 05:11:57;;;;;;;7.63;2.20;;;;;;;12.63;100.00;98483.25;5112360;28;20230;-67
2022/10/02 05:14:44;;;;;;;6.07;1.90;;;;;;;12.65;100.00;98481.38;5101444;28;20324;-67
2022/10/02 05:17:24;;;;;;;7.23;2.00;;;;;;;12.68;100.00;98489.09;5103743;28;20599;-67
2022/10/02 05:20:00;;;;;;;4.17;1.70;;;;;;;12.68;100.00;98484.66;5104790;28;20264;-67
2022/10/02 05:22:56;;;;;;;4.30;1.80;;;;;;;12.68;100.00;98483.78;5101395;28;20265;-68
2022/10/02 05:25:52;;;;;;;4.30;1.77;;;;;;;12.68;100.00;98479.34;5106543;28;20263;-67
2022/10/02 05:28:50;;;;;;;5.03;1.80;;;;;;;12.68;100.00;98483.78;5103089;28;20267;-67
2022/10/02 05:31:31;;;;;;;4.43;2.00;;;;;;;12.70;100.00;98481.88;5094542;28;20611;-68
2022/10/02 05:34:12;;;;;;;5.43;2.23;;;;;;;12.70;100.00;98481.88;5102851;28;20288;-67
2022/10/02 05:36:52;;;;;;;6.83;2.37;;;;;;;12.66;100.00;98485.72;5102893;28;20254;-67
2022/10/02 05:39:27;;;;;;;3.87;1.63;;;;;;;12.58;100.00;98485.41;5111007;28;20260;-66
2022/10/02 05:42:02;;;;;;;4.77;2.20;;;;;;;12.56;100.00;98489.97;5114312;28;20267;-66
2022/10/02 05:44:36;;;;;;;8.00;2.00;;;;;;;12.60;100.00;98491.47;5114108;28;20259;-66
2022/10/02 05:47:10;;;;;;;5.17;2.13;;;;;;;12.60;100.00;98479.03;5110231;28;20225;-66
2022/10/02 05:49:41;;;;;;;4.17;1.67;;;;;;;12.60;100.00;98488.81;5101075;28;20283;-66
2022/10/02 05:52:13;;;;;;;3.77;2.00;;;;;;;12.63;100.00;98480.63;5102822;28;20225;-66
2022/10/02 05:54:49;;;;;;;5.40;2.10;;;;;;;12.64;100.00;98482.31;5111265;28;20272;-66
2022/10/02 05:57:25;;;;;;;5.20;2.07;;;;;;;12.69;100.00;98490.78;5109711;28;20542;-67
2022/10/02 06:00:00;;;;;;;4.40;2.00;;;;;;;12.69;100.00;98496.94;5102655;28;20221;-67
2022/10/02 06:02:35;;;;;;;5.60;2.00;;;;;;;12.69;100.00;98491.66;5102969;28;20268;-66
2022/10/02 06:05:07;;;;;;;7.43;2.20;;;;;;;12.64;100.00;98506.16;5104118;28;20251;-66
2022/10/02 06:07:34;;;;;;;3.97;2.37;;;;;;;12.66;100.00;98512.25;5101920;28;20285;-65
2022/10/02 06:10:10;;;;;;;5.23;2.67;;;;;;;12.63;100.00;98501.84;5102205;28;20265;-65
2022/10/02 06:12:43;;;;;;;3.60;2.00;;;;;;;12.64;100.00;98511.47;5109692;28;20264;-66
2022/10/02 06:15:21;;;;;;;3.07;2.03;;;;;;;12.67;100.00;98524.53;5100331;28;20280;-64
2022/10/02 06:17:54;;;;;;;4.83;2.40;;;;;;;12.68;100.00;98516.47;5101911;28;20229;-64
2022/10/02 06:20:26;;;;;;;5.80;2.20;;;;;;;12.69;100.00;98507.56;5104436;28;20264;-64
2022/10/02 06:22:58;;;;;;;5.43;2.30;;;;;;;12.73;100.00;98503.75;5102395;28;20232;-64
2022/10/02 06:25:32;;;;;;;2.93;2.27;;;;;;;12.75;100.00;98507.13;5101791;28;20301;-63
2022/10/02 06:28:02;;;;;;;4.50;2.37;;;;;;;12.81;100.00;98500.50;5102250;28;20263;-62
2022/10/02 06:30:32;;;;;;;4.07;2.53;;;;;;;12.85;100.00;98494.88;5104655;28;20265;-62
2022/10/02 06:33:06;;;;;;;3.47;1.97;;;;;;;12.87;100.00;98494.75;5101677;28;20624;-62
2022/10/02 06:35:51;;;;;;;3.97;1.83;;;;;;;12.88;100.00;98488.50;5101455;28;20541;-63
2022/10/02 06:38:31;;;;;;;2.67;1.97;;;;;;;12.89;100.00;98484.91;5109507;28;20265;-62
2022/10/02 06:41:07;;;;;;;5.13;2.10;;;;;;;12.88;100.00;98472.56;5111120;28;20263;-62
2022/10/02 06:43:53;;;;;;;4.03;2.20;;;;;;;12.91;100.00;98472.38;5112888;28;20505;-62
2022/10/02 06:46:32;;;;;;;5.23;2.00;;;;;;;12.92;100.00;98476.72;5110708;28;20230;-62
2022/10/02 06:49:02;;;;;;;7.20;2.37;;;;;;;12.91;100.00;98475.84;5112871;28;20283;-61
2022/10/02 06:51:43;;;;;;;4.30;2.20;;;;;;;12.84;100.00;98492.34;5113097;28;20257;-59
2022/10/02 06:54:26;;;;;;;5.07;2.37;;;;;;;12.79;100.00;98482.06;5113147;28;20276;-60
2022/10/02 06:57:16;;;;;;;8.67;2.60;;;;;;;12.74;100.00;98478.03;5101504;28;20229;-60
2022/10/02 07:00:09;;;;;;;9.73;3.30;;;;;;;12.70;100.00;98476.56;5104079;28;20263;-62
2022/10/02 07:03:08;;;;;;;4.70;2.70;;;;;;;12.66;100.00;98470.63;5101411;28;20264;-63
2022/10/02 07:06:22;;;;;;;4.20;2.73;;;;;;;12.59;100.00;98457.94;5098517;28;20263;-61
2022/10/02 07:09:20;;;;;;;6.20;2.87;;;;;;;12.62;100.00;98463.88;5097707;28;20246;-61
2022/10/02 07:11:58;;;;;;;7.27;3.47;;;;;;;12.62;100.00;98458.56;5113404;28;20259;-61
2022/10/02 07:14:53;;;;;;;9.73;2.93;;;;;;;12.56;100.00;98452.84;5102517;28;20279;-61
2022/10/02 07:17:40;;;;;;;2.90;2.60;;;;;;;12.62;100.00;98436.50;5115177;28;20299;-65
2022/10/02 07:20:22;;;;;;;6.27;3.00;;;;;;;12.71;100.00;98441.16;5104141;28;20659;-61
2022/10/02 07:23:01;;;;;;;4.00;2.60;;;;;;;12.79;100.00;98428.16;5104169;28;20236;-64
2022/10/02 07:25:45;;;;;;;4.90;2.77;;;;;;;12.85;100.00;98439.16;5111693;28;20220;-64
2022/10/02 07:28:20;;;;;;;6.17;3.20;;;;;;;12.86;100.00;98434.72;5103945;28;20284;-64
2022/10/02 07:30:56;;;;;;;4.27;3.27;;;;;;;12.84;100.00;98423.38;5103412;28;20586;-64
2022/10/02 07:33:33;;;;;;;6.80;3.50;;;;;;;12.85;100.00;98427.72;5110082;28;20257;-64
2022/10/02 07:36:06;;;;;;;5.97;3.90;;;;;;;12.86;100.00;98429.41;5115229;28;20302;-63
2022/10/02 07:38:54;;;;;;;5.77;3.97;;;;;;;12.85;100.00;98427.72;5115194;28;20568;-64
2022/10/02 07:41:52;;;;;;;6.03;4.37;;;;;;;12.87;100.00;98429.31;5112660;28;20225;-64
2022/10/02 07:44:36;;;;;;;5.70;4.57;;;;;;;12.93;100.00;98425.34;5115239;28;20221;-63
2022/10/02 07:47:19;;;;;;;5.20;4.13;;;;;;;12.95;100.00;98434.06;5111327;28;20256;-63
2022/10/02 07:49:52;;;;;;;5.67;3.67;;;;;;;12.97;100.00;98438.28;5103738;28;20273;-63
2022/10/02 07:52:30;;;;;;;6.13;4.30;;;;;;;12.93;100.00;98426.19;5103468;28;20283;-63
2022/10/02 07:55:10;;;;;;;4.97;3.53;;;;;;;12.87;100.00;98431.94;5106784;28;20320;-63
2022/10/02 07:57:44;;;;;;;6.93;4.03;;;;;;;12.85;100.00;98438.34;5103460;28;20338;-61
2022/10/02 08:00:13;;;;;;;5.80;3.87;;;;;;;12.80;100.00;98435.16;5101739;28;20269;-61
2022/10/02 08:02:49;;;;;;;7.10;3.90;;;;;;;12.82;100.00;98435.88;5106374;28;20264;-61
2022/10/02 08:05:19;;;;;;;5.83;3.87;;;;;;;12.79;100.00;98433.47;5103287;28;20304;-62
2022/10/02 08:07:49;;;;;;;4.50;3.60;;;;;;;12.78;100.00;98416.69;5101966;28;20242;-62
2022/10/02 08:10:20;;;;;;;9.23;4.50;;;;;;;12.82;100.00;98417.31;5101441;28;20229;-64
2022/10/02 08:12:54;;;;;;;5.33;3.60;;;;;;;12.87;100.00;98436.41;5104991;28;20260;-63
2022/10/02 08:15:23;;;;;;;5.07;3.60;;;;;;;12.90;100.00;98407.00;5102217;28;20557;-63
2022/10/02 08:17:57;;;;;;;5.97;3.57;;;;;;;12.95;100.00;98399.56;5107990;28;20523;-64
2022/10/02 08:20:29;;;;;;;6.90;4.50;;;;;;;12.96;100.00;98423.34;5102627;28;20339;-63
2022/10/02 08:23:02;;;;;;;6.13;4.20;;;;;;;12.95;100.00;98423.44;5103450;28;20654;-63
2022/10/02 08:25:31;;;;;;;5.03;3.73;;;;;;;13.06;100.00;98384.56;5104660;28;20277;-63
2022/10/02 08:28:02;;;;;;;4.30;3.63;;;;;;;13.29;100.00;98398.72;5104034;28;20224;-63
2022/10/02 08:30:29;;;;;;;3.60;3.30;;;;;;;13.52;100.00;98377.41;5105100;28;20301;-63
2022/10/02 08:32:58;;;;;;;5.60;3.60;;;;;;;13.42;100.00;98418.06;5115576;28;20263;-63
2022/10/02 08:35:39;;;;;;;4.33;3.03;;;;;;;13.28;100.00;98407.66;5105109;28;20655;-64
2022/10/02 08:38:18;;;;;;;6.47;3.00;;;;;;;13.36;100.00;98402.63;5099003;28;20221;-63
2022/10/02 08:41:25;;;;;;;4.43;3.07;;;;;;;13.48;100.00;98399.88;5098268;28;20236;-63
2022/10/02 08:44:23;;;;;;;5.20;2.73;;;;;;;13.61;100.00;98394.47;5099571;28;20272;-63
2022/10/02 08:47:13;;;;;;;3.37;2.37;;;;;;;13.63;100.00;98411.97;5097637;28;20827;-63
2022/10/02 08:50:19;;;;;;;3.13;2.43;;;;;;;13.69;100.00;98392.91;5099420;28;20234;-62
2022/10/02 08:53:25;;;;;;;4.37;2.50;;;;;;;13.84;100.00;98383.75;5079970;28;20293;-62
2022/10/02 08:56:22;;;;;;;4.93;2.80;;;;;;;13.86;100.00;98399.56;5098912;28;20393;-61
2022/10/02 08:59:08;;;;;;;4.53;3.27;;;;;;;14.00;100.00;98384.22;5099026;28;20223;-60
2022/10/02 09:01:56;;;;;;;7.50;3.00;;;;;;;14.35;100.00;98387.63;5099929;28;20317;-61
2022/10/02 09:04:57;;;;;;;4.77;2.80;;;;;;;14.61;100.00;98380.22;5098873;28;20527;-60
2022/10/02 09:08:10;;;;;;;2.73;2.37;;;;;;;14.88;100.00;98391.25;5099838;28;20665;-59
2022/10/02 09:11:01;;;;;;;3.30;2.27;;;;;;;15.12;100.00;98381.22;5098644;28;20264;-61
2022/10/02 09:14:15;;;;;;;3.57;2.10;;;;;;;15.33;100.00;98380.28;5099802;28;20514;-61
2022/10/02 09:17:08;;;;;;;3.03;1.80;;;;;;;15.39;100.00;98386.94;5035951;28;20260;-61
2022/10/02 09:19:48;;;;;;;2.83;1.80;;;;;;;15.37;100.00;98387.06;5110923;28;20551;-62
2022/10/02 09:22:50;;;;;;;2.23;1.80;;;;;;;15.30;100.00;98404.50;5095644;28;20670;-60
2022/10/02 09:25:36;;;;;;;2.93;1.80;;;;;;;15.03;100.00;98406.78;5098398;28;20284;-61
2022/10/02 09:28:41;;;;;;;2.70;1.57;;;;;;;14.75;100.00;98409.19;5097089;28;20529;-61
2022/10/02 09:31:45;;;;;;;5.20;2.30;;;;;;;14.50;100.00;98417.47;5109209;28;20297;-62
2022/10/02 09:34:57;;;;;;;2.77;2.50;;;;;;;14.28;100.00;98405.03;5104438;28;20270;-62
2022/10/02 09:37:45;;;;;;;3.50;2.40;;;;;;;14.11;100.00;98388.72;5101089;28;20236;-61
2022/10/02 09:40:57;;;;;;;5.37;2.70;;;;;;;13.96;100.00;98381.94;5114341;28;20288;-60
2022/10/02 09:43:45;;;;;;;3.97;3.20;;;;;;;14.03;100.00;98372.50;5087259;28;20236;-61
2022/10/02 09:46:46;;;;;;;3.77;3.37;;;;;;;13.88;100.00;98390.50;5097792;28;20228;-59
2022/10/02 09:49:35;;;;;;;3.80;3.30;;;;;;;13.78;100.00;98394.88;5102077;28;20223;-60
2022/10/02 09:52:45;;;;;;;4.33;2.57;;;;;;;13.75;100.00;98388.94;5098431;28;20304;-61
2022/10/02 09:55:42;;;;;;;2.37;1.90;;;;;;;13.66;100.00;98384.31;5106548;28;20300;-61
2022/10/02 09:58:35;;;;;;;3.23;2.43;;;;;;;13.49;100.00;98392.75;5099277;28;20621;-62
2022/10/02 10:01:18;;;;;;;4.13;2.60;;;;;;;13.49;100.00;98390.09;5099033;28;20305;-61
2022/10/02 10:04:07;;;;;;;4.47;3.10;;;;;;;13.41;100.00;98393.34;5098536;28;20614;-60
2022/10/02 10:07:15;;;;;;;4.90;3.03;;;;;;;13.46;100.00;98399.13;5096781;28;20222;-61
2022/10/02 10:10:00;;;;;;;4.67;3.13;;;;;;;13.44;100.00;98406.38;5096290;28;20229;-61
2022/10/02 10:13:19;;;;;;;4.47;3.33;;;;;;;13.50;100.00;98405.09;5097862;28;20288;-61
2022/10/02 10:16:32;;;;;;;4.60;3.17;;;;;;;13.51;100.00;98404.13;5034220;28;20763;-61
2022/10/02 10:19:33;;;;;;;4.47;3.20;;;;;;;13.51;100.00;98404.94;4988080;28;20342;-61
2022/10/02 10:22:32;;;;;;;3.37;3.07;;;;;;;13.57;100.00;98395.69;5095807;28;20265;-62
2022/10/02 10:25:50;;;;;;;3.77;2.90;;;;;;;13.90;100.00;98403.69;5096256;28;20267;-60
2022/10/02 10:28:50;;;;;;;3.63;2.53;;;;;;;14.17;100.00;98385.56;5080328;28;20227;-60
2022/10/02 10:31:49;;;;;;;2.97;2.43;;;;;;;14.46;100.00;98386.75;5089993;28;20268;-61
2022/10/02 10:34:48;;;;;;;1.93;1.83;;;;;;;14.33;100.00;98391.38;5099736;28;20274;-60
2022/10/02 10:40:38;;;;;;;3.00;1.90;;;;;;;13.84;100.00;98389.06;5113470;28;20221;-61
2022/10/02 10:43:40;;;;;;;2.73;1.90;;;;;;;13.76;100.00;98417.19;5114991;28;20308;-60
2022/10/02 10:46:28;;;;;;;2.23;2.00;;;;;;;13.55;100.00;98429.44;5099125;28;20217;-61
2022/10/02 10:49:27;;;;;;;1.90;1.63;;;;;;;13.61;100.00;98410.38;5096860;28;20710;-60
2022/10/02 10:52:02;;;;;;;2.00;1.80;;;;;;;13.54;100.00;98427.75;5087179;28;20265;-61
2022/10/02 10:55:07;;;;;;;2.30;1.90;;;;;;;13.56;100.00;98420.53;5107748;28;20267;-59
2022/10/02 10:57:55;;;;;;;2.40;1.50;;;;;;;13.63;100.00;98413.81;5111426;28;20263;-60
2022/10/02 11:00:24;;;;;;;1.60;1.50;;;;;;;13.64;100.00;98412.81;5114679;28;20261;-60
2022/10/02 11:03:03;;;;;;;2.40;1.80;;;;;;;13.59;100.00;98414.97;5114401;28;20225;-62
2022/10/02 11:06:11;;;;;;;2.17;1.50;;;;;;;13.53;100.00;98420.75;5113217;28;20264;-61
2022/10/02 11:09:14;;;;;;;1.77;1.67;;;;;;;13.55;100.00;98424.13;5112728;28;20242;-60
2022/10/02 11:11:54;;;;;;;1.40;1.27;;;;;;;13.56;100.00;98425.88;5114269;28;20358;-60
2022/10/02 11:14:35;;;;;;;1.37;1.27;;;;;;;13.66;100.00;98424.16;5114753;28;20222;-61
2022/10/02 11:17:33;;;;;;;1.43;1.33;;;;;;;13.71;100.00;98429.97;5114262;28;20258;-60
2022/10/02 11:20:18;;;;;;;1.70;1.30;;;;;;;13.72;100.00;98450.25;5097083;28;20304;-60
2022/10/02 11:23:16;;;;;;;1.57;1.17;;;;;;;13.68;100.00;98438.19;5096720;28;20264;-61
2022/10/02 11:26:06;;;;;;;2.57;1.40;;;;;;;13.65;100.00;98441.06;5096750;28;20622;-61
2022/10/02 11:28:57;;;;;;;1.73;1.40;;;;;;;13.67;100.00;98433.81;5096803;28;20628;-60
2022/10/02 11:31:49;;;;;;;1.20;1.10;;;;;;;13.70;100.00;98417.66;5096813;28;20229;-61
2022/10/02 11:34:44;;;;;;;1.90;1.43;;;;;;;13.79;100.00;98419.59;5094938;28;20229;-62
2022/10/02 11:37:30;;;;;;;1.67;1.23;;;;;;;13.79;100.00;98419.59;5113389;28;20261;-61
2022/10/02 11:40:22;;;;;;;2.70;1.30;;;;;;;13.82;100.00;98400.78;5114397;28;20225;-61
2022/10/02 11:43:10;;;;;;;1.10;1.00;;;;;;;13.91;100.00;98421.31;5112807;28;20257;-63
2022/10/02 11:46:03;;;;;;;1.10;1.00;;;;;;;14.01;100.00;98422.28;5114326;28;20222;-63
2022/10/02 11:48:55;;;;;;;1.00;1.00;;;;;;;13.94;100.00;98423.75;5100502;28;20262;-62
2022/10/02 11:51:45;;;;;;;0.80;0.80;;;;;;;13.96;100.00;98424.44;5096498;28;20693;-64
2022/10/02 11:54:43;;;;;;;0.67;0.67;;;;;;;13.96;100.00;98425.31;5102880;28;20211;-63
2022/10/02 11:57:21;;;;;;;1.07;0.80;;;;;;;13.95;100.00;98420.13;5096586;28;20233;-62
2022/10/02 12:00:07;;;;;;;1.43;0.90;;;;;;;13.99;100.00;98430.38;5096586;28;20260;-62
2022/10/02 12:02:41;;;;;;;1.13;1.00;;;;;;;13.97;100.00;98426.13;5100039;28;20459;-63
2022/10/02 12:05:24;;;;;;;1.80;0.90;;;;;;;13.89;100.00;98418.78;5100139;28;20262;-63
2022/10/02 12:08:00;;;;;;;1.77;1.00;;;;;;;13.83;100.00;98418.41;5100412;28;20243;-64
2022/10/02 12:10:38;;;;;;;0.63;0.63;;;;;;;13.91;100.00;98416.00;5101515;28;20621;-64
2022/10/02 12:13:23;;;;;;;0.97;0.80;;;;;;;13.88;100.00;98403.78;5100116;28;20279;-64
2022/10/02 12:16:00;;;;;;;0.60;0.60;;;;;;;13.78;100.00;98408.16;5099944;28;20575;-63
2022/10/02 12:18:40;;;;;;;0.60;0.60;;;;;;;13.82;100.00;98403.44;5116824;28;20225;-63
2022/10/02 12:27:12;;;;;;;0.40;0.40;;;;;;;13.77;100.00;98410.91;5116073;28;20218;-63
2022/10/02 12:30:05;;;;;;;0.60;0.60;;;;;;;13.76;100.00;98409.22;5116106;28;20258;-63
2022/10/02 12:32:51;;;;;;;0.90;0.63;;;;;;;13.82;100.00;98398.94;5114678;28;20226;-62
2022/10/02 12:35:38;;;;;;;0.60;0.60;;;;;;;13.86;100.00;98412.84;5116093;28;20597;-63
2022/10/02 12:38:21;;;;;;;0.90;0.57;;;;;;;13.84;100.00;98420.09;5114628;28;20312;-63